createdAt,value
2022-08-28T00:00:01.171Z,2.50
2022-08-28T00:02:27.781Z,2.50
2022-08-28T00:04:54.760Z,2.90
2022-08-28T00:07:22.324Z,2.55
2022-08-28T00:09:48.845Z,2.50
2022-08-28T00:12:15.242Z,2.30
2022-08-28T00:14:41.933Z,2.58
2022-08-28T00:17:08.465Z,2.38
2022-08-28T00:19:38.454Z,2.85
2022-08-28T00:22:06.100Z,2.80
2022-08-28T00:24:32.942Z,2.33
2022-08-28T00:27:18.462Z,2.50
2022-08-28T00:29:45.201Z,2.50
2022-08-28T00:32:11.828Z,2.70
2022-08-28T00:34:39.134Z,3.00
2022-08-28T00:37:07.297Z,2.80
2022-08-28T00:39:33.691Z,2.70
2022-08-28T00:42:00.342Z,2.75
2022-08-28T00:44:28.968Z,2.85
2022-08-28T00:46:57.610Z,2.80
2022-08-28T00:49:27.457Z,2.90
2022-08-28T00:52:12.431Z,2.63
2022-08-28T00:54:58.822Z,2.85
2022-08-28T00:57:30.725Z,2.83
2022-08-28T00:59:57.414Z,3.17
2022-08-28T01:02:23.891Z,2.67
2022-08-28T01:04:50.881Z,2.85
2022-08-28T01:07:18.079Z,2.80
2022-08-28T01:09:48.846Z,2.97
2022-08-28T01:12:19.479Z,2.60
2022-08-28T01:14:48.369Z,2.90
2022-08-28T01:17:17.535Z,3.10
2022-08-28T01:19:56.335Z,2.80
2022-08-28T01:22:28.989Z,2.80
2022-08-28T01:25:03.294Z,2.67
2022-08-28T01:27:29.946Z,3.13
2022-08-28T01:29:57.529Z,2.60
2022-08-28T01:32:42.430Z,2.70
2022-08-28T01:35:13.546Z,2.60
2022-08-28T01:37:39.976Z,2.60
2022-08-28T01:40:09.437Z,2.53
2022-08-28T01:42:41.008Z,2.45
2022-08-28T01:45:10.972Z,2.85
2022-08-28T01:47:39.168Z,2.70
2022-08-28T01:50:09.274Z,3.10
2022-08-28T01:52:36.390Z,3.00
2022-08-28T01:55:05.170Z,2.67
2022-08-28T01:57:31.723Z,2.75
2022-08-28T01:59:58.162Z,2.83
2022-08-28T02:02:24.575Z,2.55
2022-08-28T02:04:51.061Z,2.70
2022-08-28T02:07:17.620Z,2.28
2022-08-28T02:09:44.048Z,2.70
2022-08-28T02:12:10.776Z,2.38
2022-08-28T02:14:38.379Z,2.75
2022-08-28T02:17:04.896Z,2.43
2022-08-28T02:19:32.150Z,2.58
2022-08-28T02:21:58.552Z,2.38
2022-08-28T02:24:24.952Z,2.80
2022-08-28T02:26:51.391Z,2.50
2022-08-28T02:29:18.609Z,2.77
2022-08-28T02:31:44.998Z,2.17
2022-08-28T02:34:11.431Z,2.65
2022-08-28T02:36:41.962Z,2.70
2022-08-28T02:39:08.584Z,3.22
2022-08-28T02:41:35.173Z,3.00
2022-08-28T02:44:02.239Z,3.10
2022-08-28T02:46:28.748Z,2.92
2022-08-28T02:48:56.201Z,2.80
2022-08-28T02:51:22.881Z,2.88
2022-08-28T02:53:50.387Z,2.60
2022-08-28T02:56:16.783Z,3.10
2022-08-28T02:58:43.239Z,3.13
2022-08-28T03:01:11.956Z,2.97
2022-08-28T03:03:39.714Z,3.03
2022-08-28T03:06:09.312Z,3.00
2022-08-28T03:08:35.802Z,2.92
2022-08-28T03:11:02.208Z,3.38
2022-08-28T03:13:30.028Z,3.95
2022-08-28T03:15:56.886Z,3.53
2022-08-28T03:18:25.373Z,3.90
2022-08-28T03:20:52.882Z,4.30
2022-08-28T03:23:28.195Z,3.97
2022-08-28T03:26:02.099Z,3.95
2022-08-28T03:28:32.750Z,4.38
2022-08-28T03:30:59.453Z,3.87
2022-08-28T03:33:27.167Z,4.00
2022-08-28T03:35:55.149Z,3.55
2022-08-28T03:38:22.185Z,3.58
2022-08-28T03:40:49.119Z,3.65
2022-08-28T03:43:19.928Z,3.70
2022-08-28T03:45:58.893Z,3.42
2022-08-28T03:48:27.919Z,3.63
2022-08-28T03:50:55.333Z,3.72
2022-08-28T03:53:24.986Z,3.50
2022-08-28T03:55:52.294Z,3.70
2022-08-28T03:58:19.355Z,3.40
2022-08-28T04:00:46.678Z,3.05
2022-08-28T04:03:13.607Z,3.40
2022-08-28T04:05:41.603Z,3.80
2022-08-28T04:08:08.693Z,3.60
2022-08-28T04:10:36.625Z,3.50
2022-08-28T04:13:03.462Z,3.38
2022-08-28T04:15:30.129Z,3.30
2022-08-28T04:17:56.530Z,3.50
2022-08-28T04:20:22.991Z,3.17
2022-08-28T04:22:49.891Z,3.60
2022-08-28T04:25:22.362Z,3.20
2022-08-28T04:27:50.305Z,3.50
2022-08-28T04:30:16.884Z,2.90
2022-08-28T04:32:43.406Z,2.90
2022-08-28T04:35:12.830Z,3.42
2022-08-28T04:37:40.203Z,3.22
2022-08-28T04:40:11.814Z,3.20
2022-08-28T04:42:39.887Z,3.40
2022-08-28T04:45:07.570Z,2.90
2022-08-28T04:47:37.918Z,3.15
2022-08-28T04:50:06.451Z,2.80
2022-08-28T04:52:32.872Z,2.92
2022-08-28T04:54:59.265Z,3.10
2022-08-28T04:57:26.183Z,3.10
2022-08-28T04:59:52.570Z,3.00
2022-08-28T05:02:19.025Z,3.20
2022-08-28T05:04:45.508Z,2.80
2022-08-28T05:07:11.898Z,3.17
2022-08-28T05:09:38.933Z,3.00
2022-08-28T05:12:05.899Z,2.70
2022-08-28T05:14:32.420Z,3.20
2022-08-28T05:16:58.995Z,2.83
2022-08-28T05:19:27.751Z,2.75
2022-08-28T05:21:54.895Z,2.90
2022-08-28T05:24:22.382Z,2.80
2022-08-28T05:26:49.117Z,3.03
2022-08-28T05:29:16.825Z,2.70
2022-08-28T05:31:44.102Z,2.65
2022-08-28T05:34:12.611Z,2.40
2022-08-28T05:36:39.479Z,2.60
2022-08-28T05:39:09.181Z,2.72
2022-08-28T05:41:36.172Z,2.42
2022-08-28T05:44:05.797Z,2.60
2022-08-28T05:46:33.507Z,2.90
2022-08-28T05:49:00.392Z,2.67
2022-08-28T05:51:27.619Z,2.70
2022-08-28T05:53:57.444Z,2.55
2022-08-28T05:56:29.563Z,3.00
2022-08-28T05:58:57.716Z,2.90
2022-08-28T06:01:30.222Z,3.05
2022-08-28T06:04:05.134Z,3.08
2022-08-28T06:06:34.418Z,3.03
2022-08-28T06:09:04.919Z,2.92
2022-08-28T06:11:32.606Z,2.70
2022-08-28T06:14:01.779Z,2.50
2022-08-28T06:16:32.137Z,2.85
2022-08-28T06:18:59.154Z,2.55
2022-08-28T06:21:26.018Z,2.42
2022-08-28T06:23:52.459Z,2.70
2022-08-28T06:26:18.870Z,2.50
2022-08-28T06:28:45.296Z,2.97
2022-08-28T06:31:23.361Z,2.88
2022-08-28T06:33:52.219Z,3.35
2022-08-28T06:36:18.609Z,3.23
2022-08-28T06:38:46.700Z,3.20
2022-08-28T06:41:15.423Z,3.40
2022-08-28T06:43:42.008Z,3.10
2022-08-28T06:46:08.560Z,2.83
2022-08-28T06:48:35.144Z,3.03
2022-08-28T06:51:04.994Z,2.47
2022-08-28T06:53:31.431Z,2.60
2022-08-28T06:56:08.377Z,2.13
2022-08-28T06:58:41.347Z,2.38
2022-08-28T07:01:32.925Z,1.90
2022-08-28T07:04:09.013Z,1.60
2022-08-28T07:06:38.014Z,1.65
2022-08-28T07:09:07.344Z,1.23
2022-08-28T07:11:35.251Z,1.33
2022-08-28T07:14:03.021Z,1.43
2022-08-28T07:16:37.929Z,1.50
2022-08-28T07:19:05.827Z,1.10
2022-08-28T07:21:38.162Z,1.30
2022-08-28T07:24:06.805Z,1.77
2022-08-28T07:26:33.954Z,1.03
2022-08-28T07:29:10.297Z,1.13
2022-08-28T07:31:44.336Z,1.30
2022-08-28T07:34:13.475Z,1.40
2022-08-28T07:36:40.299Z,1.20
2022-08-28T07:39:08.332Z,1.57
2022-08-28T07:41:39.041Z,1.20
2022-08-28T07:44:24.984Z,1.20
2022-08-28T07:46:56.393Z,1.23
2022-08-28T07:49:24.177Z,1.40
2022-08-28T07:51:50.684Z,1.30
2022-08-28T07:54:20.961Z,1.30
2022-08-28T07:56:47.391Z,1.58
2022-08-28T07:59:16.986Z,1.30
2022-08-28T08:01:46.281Z,1.08
2022-08-28T08:04:13.278Z,1.30
2022-08-28T08:06:41.061Z,1.08
2022-08-28T08:09:11.144Z,1.60
2022-08-28T08:11:38.091Z,1.20
2022-08-28T08:14:05.899Z,1.20
2022-08-28T08:16:39.263Z,1.20
2022-08-28T08:19:06.480Z,1.35
2022-08-28T08:21:32.868Z,1.40
2022-08-28T08:23:59.592Z,1.13
2022-08-28T08:26:30.633Z,1.20
2022-08-28T08:28:57.263Z,1.30
2022-08-28T08:31:27.567Z,1.20
2022-08-28T08:33:57.239Z,1.30
2022-08-28T08:36:25.746Z,1.33
2022-08-28T08:38:59.277Z,1.38
2022-08-28T08:41:34.515Z,1.50
2022-08-28T08:44:09.751Z,1.33
2022-08-28T08:47:03.576Z,1.30
2022-08-28T08:49:35.924Z,1.73
2022-08-28T08:52:11.479Z,1.27
2022-08-28T08:54:42.886Z,1.30
2022-08-28T08:57:12.855Z,1.10
2022-08-28T08:59:39.939Z,1.60
2022-08-28T09:02:14.935Z,1.30
2022-08-28T09:04:50.555Z,1.48
2022-08-28T09:07:21.015Z,1.63
2022-08-28T09:09:53.391Z,1.52
2022-08-28T09:12:23.107Z,1.70
2022-08-28T09:15:05.253Z,1.65
2022-08-28T09:17:35.776Z,1.75
2022-08-28T09:20:02.380Z,1.60
2022-08-28T09:22:28.768Z,1.45
2022-08-28T09:24:55.511Z,1.50
2022-08-28T09:27:29.149Z,1.70
2022-08-28T09:29:58.919Z,1.30
2022-08-28T09:32:34.222Z,1.27
2022-08-28T09:35:01.149Z,1.40
2022-08-28T09:37:32.010Z,1.50
2022-08-28T09:40:15.853Z,1.45
2022-08-28T09:43:25.425Z,1.50
2022-08-28T09:45:59.612Z,1.37
2022-08-28T09:48:35.619Z,1.40
2022-08-28T09:51:08.783Z,1.50
2022-08-28T09:53:56.389Z,1.58
2022-08-28T09:56:27.235Z,1.70
2022-08-28T09:58:57.169Z,1.80
2022-08-28T10:01:41.200Z,1.90
2022-08-28T10:04:22.886Z,1.30
2022-08-28T10:06:54.857Z,1.52
2022-08-28T10:09:30.998Z,1.60
2022-08-28T10:12:08.666Z,1.90
2022-08-28T10:14:52.694Z,1.35
2022-08-28T10:17:39.320Z,1.52
2022-08-28T10:20:22.310Z,1.60
2022-08-28T10:22:51.661Z,1.58
2022-08-28T10:25:30.517Z,1.50
2022-08-28T10:28:14.950Z,1.40
2022-08-28T10:30:53.421Z,1.70
2022-08-28T10:33:39.674Z,1.52
2022-08-28T10:36:27.399Z,1.50
2022-08-28T10:39:19.239Z,1.33
2022-08-28T10:41:48.771Z,1.60
2022-08-28T10:44:24.450Z,1.63
2022-08-28T10:46:58.347Z,1.40
2022-08-28T10:49:31.832Z,1.45
2022-08-28T10:52:05.146Z,1.30
2022-08-28T10:54:46.992Z,1.55
2022-08-28T10:57:39.958Z,1.38
2022-08-28T11:00:18.165Z,1.90
2022-08-28T11:02:50.412Z,1.63
2022-08-28T11:05:23.214Z,1.33
2022-08-28T11:07:55.267Z,1.30
2022-08-28T11:10:36.835Z,1.27
2022-08-28T11:13:06.269Z,1.60
2022-08-28T11:15:36.992Z,1.42
2022-08-28T11:18:16.136Z,1.33
2022-08-28T11:21:10.886Z,1.60
2022-08-28T11:23:47.083Z,1.30
2022-08-28T11:26:23.134Z,1.50
2022-08-28T11:28:49.831Z,1.27
2022-08-28T11:31:24.692Z,1.07
2022-08-28T11:33:58.899Z,1.63
2022-08-28T11:36:29.844Z,1.50
2022-08-28T11:38:56.325Z,1.30
2022-08-28T11:41:33.424Z,1.85
2022-08-28T11:44:17.810Z,1.37
2022-08-28T11:46:51.951Z,1.48
2022-08-28T11:49:27.359Z,1.83
2022-08-28T11:52:20.496Z,1.80
2022-08-28T11:55:01.977Z,1.40
2022-08-28T12:00:52.603Z,1.30
2022-08-28T12:03:38.216Z,1.52
2022-08-28T12:06:06.644Z,1.80
2022-08-28T12:08:44.939Z,2.08
2022-08-28T12:11:40.754Z,1.70
2022-08-28T12:14:13.088Z,1.70
2022-08-28T12:17:00.916Z,1.80
2022-08-28T12:19:32.206Z,1.55
2022-08-28T12:22:04.956Z,1.73
2022-08-28T12:24:31.400Z,1.67
2022-08-28T12:26:59.070Z,1.25
2022-08-28T12:29:29.315Z,1.70
2022-08-28T12:32:25.469Z,1.75
2022-08-28T12:34:57.562Z,1.55
2022-08-28T12:37:50.952Z,1.50
2022-08-28T12:40:41.218Z,2.00
2022-08-28T12:43:10.699Z,1.70
2022-08-28T12:45:53.669Z,2.05
2022-08-28T12:48:27.615Z,1.70
2022-08-28T12:51:05.119Z,2.07
2022-08-28T12:53:47.166Z,1.85
2022-08-28T12:56:17.543Z,1.98
2022-08-28T12:58:45.469Z,1.52
2022-08-28T13:01:25.756Z,1.60
2022-08-28T13:03:57.388Z,1.60
2022-08-28T13:06:30.976Z,1.98
2022-08-28T13:09:01.147Z,1.55
2022-08-28T13:11:34.312Z,1.45
2022-08-28T13:14:00.863Z,1.65
2022-08-28T13:16:42.148Z,1.60
2022-08-28T13:19:23.463Z,1.50
2022-08-28T13:22:01.844Z,1.35
2022-08-28T13:24:31.272Z,1.58
2022-08-28T13:27:12.119Z,1.65
2022-08-28T13:29:59.697Z,1.40
2022-08-28T13:32:30.205Z,1.58
2022-08-28T13:35:20.504Z,1.70
2022-08-28T13:37:52.428Z,1.45
2022-08-28T13:40:56.506Z,1.27
2022-08-28T13:43:16.503Z,1.40
2022-08-28T13:45:48.073Z,1.15
2022-08-28T13:48:17.484Z,1.27
2022-08-28T13:50:47.351Z,1.30
2022-08-28T13:53:16.751Z,1.45
2022-08-28T13:55:43.798Z,1.40
2022-08-28T13:58:10.614Z,1.20
2022-08-28T14:00:43.336Z,1.27
2022-08-28T14:03:28.467Z,1.15
2022-08-28T14:05:54.927Z,1.17
2022-08-28T14:08:21.888Z,1.03
2022-08-28T14:10:48.780Z,1.10
2022-08-28T14:13:15.273Z,1.25
2022-08-28T14:15:41.756Z,1.25
2022-08-28T14:18:08.190Z,1.30
2022-08-28T14:20:34.600Z,1.10
2022-08-28T14:23:00.999Z,1.23
2022-08-28T14:25:27.395Z,1.23
2022-08-28T14:27:55.667Z,1.27
2022-08-28T14:30:22.800Z,1.20
2022-08-28T14:32:49.212Z,0.87
2022-08-28T14:35:15.603Z,0.93
2022-08-28T14:37:42.031Z,1.08
2022-08-28T14:40:09.937Z,1.00
2022-08-28T14:42:36.410Z,0.88
2022-08-28T14:45:02.938Z,1.20
2022-08-28T14:47:29.402Z,1.15
2022-08-28T14:49:55.850Z,0.98
2022-08-28T14:52:22.833Z,0.93
2022-08-28T14:54:49.240Z,1.08
2022-08-28T14:57:15.746Z,1.00
2022-08-28T14:59:42.216Z,1.00
2022-08-28T15:02:08.627Z,1.30
2022-08-28T15:04:37.644Z,1.05
2022-08-28T15:07:08.440Z,1.42
2022-08-28T15:09:37.376Z,1.00
2022-08-28T15:12:04.303Z,1.30
2022-08-28T15:14:31.311Z,1.13
2022-08-28T15:16:57.781Z,1.30
2022-08-28T15:19:24.437Z,1.40
2022-08-28T15:21:53.839Z,1.17
2022-08-28T15:24:26.959Z,1.02
2022-08-28T15:26:53.747Z,1.10
2022-08-28T15:29:20.500Z,0.90
2022-08-28T15:31:49.097Z,1.40
2022-08-28T15:34:18.695Z,1.17
2022-08-28T15:36:54.663Z,1.23
2022-08-28T15:39:42.536Z,1.30
2022-08-28T15:42:09.892Z,1.30
2022-08-28T15:44:37.331Z,1.30
2022-08-28T15:47:04.940Z,1.20
2022-08-28T15:49:38.941Z,1.10
2022-08-28T15:52:13.638Z,1.38
2022-08-28T15:54:41.274Z,1.10
2022-08-28T15:57:07.846Z,1.17
2022-08-28T15:59:44.148Z,1.13
2022-08-28T16:02:15.955Z,1.10
2022-08-28T16:04:42.412Z,1.17
2022-08-28T16:07:08.864Z,1.10
2022-08-28T16:09:35.368Z,0.93
2022-08-28T16:12:01.782Z,1.13
2022-08-28T16:14:28.309Z,1.20
2022-08-28T16:16:54.784Z,1.30
2022-08-28T16:19:21.363Z,1.23
2022-08-28T16:21:47.773Z,0.90
2022-08-28T16:24:14.189Z,1.03
2022-08-28T16:26:40.899Z,1.25
2022-08-28T16:29:07.467Z,1.20
2022-08-28T16:31:34.323Z,1.20
2022-08-28T16:34:02.945Z,1.17
2022-08-28T16:36:30.196Z,1.10
2022-08-28T16:39:00.435Z,1.20
2022-08-28T16:41:31.858Z,1.23
2022-08-28T16:43:58.695Z,1.40
2022-08-28T16:46:27.055Z,1.30
2022-08-28T16:48:54.419Z,1.07
2022-08-28T16:51:21.475Z,1.10
2022-08-28T16:53:48.228Z,0.90
2022-08-28T16:56:17.205Z,1.10
2022-08-28T16:58:44.868Z,1.00
2022-08-28T17:01:12.872Z,1.03
2022-08-28T17:03:40.220Z,1.00
2022-08-28T17:06:11.327Z,1.00
2022-08-28T17:08:37.754Z,1.13
2022-08-28T17:11:06.446Z,1.05
2022-08-28T17:13:33.876Z,0.90
2022-08-28T17:16:00.670Z,1.00
2022-08-28T17:18:27.119Z,1.00
2022-08-28T17:21:12.902Z,0.93
2022-08-28T17:23:39.367Z,1.10
2022-08-28T17:26:06.175Z,0.90
2022-08-28T17:28:32.610Z,0.90
2022-08-28T17:30:59.346Z,0.90
2022-08-28T17:33:25.893Z,0.90
2022-08-28T17:35:55.039Z,0.98
2022-08-28T17:38:21.888Z,1.20
2022-08-28T17:40:48.295Z,0.93
2022-08-28T17:43:14.779Z,1.00
2022-08-28T17:45:41.183Z,1.00
2022-08-28T17:48:07.660Z,1.40
2022-08-28T17:50:35.322Z,0.97
2022-08-28T17:53:01.708Z,1.13
2022-08-28T17:55:28.248Z,1.30
2022-08-28T17:57:55.043Z,1.30
2022-08-28T18:00:21.642Z,1.30
2022-08-28T18:02:52.125Z,1.23
2022-08-28T18:05:18.533Z,1.08
2022-08-28T18:07:45.193Z,1.20
2022-08-28T18:10:12.419Z,1.45
2022-08-28T18:12:40.622Z,1.20
2022-08-28T18:15:09.763Z,1.63
2022-08-28T18:17:38.061Z,1.60
2022-08-28T18:20:06.545Z,1.20
2022-08-28T18:22:32.947Z,1.25
2022-08-28T18:24:59.379Z,1.20
2022-08-28T18:27:27.804Z,1.50
2022-08-28T18:29:54.313Z,1.42
2022-08-28T18:32:20.783Z,1.30
2022-08-28T18:34:47.325Z,1.70
2022-08-28T18:37:13.767Z,1.40
2022-08-28T18:39:40.346Z,1.60
2022-08-28T18:42:09.360Z,1.83
2022-08-28T18:44:35.805Z,1.73
2022-08-28T18:47:02.249Z,1.83
2022-08-28T18:49:28.654Z,1.75
2022-08-28T18:51:55.084Z,1.40
2022-08-28T18:54:21.847Z,1.90
2022-08-28T18:56:49.700Z,1.77
2022-08-28T18:59:17.306Z,1.88
2022-08-28T19:01:43.947Z,1.85
2022-08-28T19:04:10.525Z,1.87
2022-08-28T19:06:36.955Z,1.98
2022-08-28T19:09:05.557Z,1.90
2022-08-28T19:11:32.137Z,2.03
2022-08-28T19:13:59.442Z,1.83
2022-08-28T19:16:31.634Z,2.00
2022-08-28T19:18:58.064Z,2.00
2022-08-28T19:21:24.624Z,2.25
2022-08-28T19:23:55.925Z,2.20
2022-08-28T19:26:24.484Z,2.15
2022-08-28T19:28:51.470Z,2.23
2022-08-28T19:31:18.255Z,2.67
2022-08-28T19:33:46.393Z,2.20
2022-08-28T19:36:13.663Z,2.33
2022-08-28T19:38:40.597Z,2.28
2022-08-28T19:41:09.545Z,2.23
2022-08-28T19:43:42.929Z,2.30
2022-08-28T19:46:18.718Z,2.10
2022-08-28T19:48:48.551Z,2.40
2022-08-28T19:51:17.671Z,2.33
2022-08-28T19:53:56.746Z,2.10
2022-08-28T19:56:26.996Z,2.25
2022-08-28T19:58:55.015Z,2.10
2022-08-28T20:01:21.518Z,2.50
2022-08-28T20:03:47.962Z,2.13
2022-08-28T20:06:14.490Z,2.10
2022-08-28T20:08:40.989Z,2.10
2022-08-28T20:11:07.761Z,2.13
2022-08-28T20:13:34.847Z,2.40
2022-08-28T20:16:05.520Z,2.20
2022-08-28T20:18:33.314Z,2.30
2022-08-28T20:20:59.895Z,2.47
2022-08-28T20:23:26.280Z,2.20
2022-08-28T20:25:52.852Z,2.20
2022-08-28T20:28:19.407Z,2.38
2022-08-28T20:30:46.876Z,2.10
2022-08-28T20:33:14.055Z,2.28
2022-08-28T20:35:40.656Z,2.60
2022-08-28T20:38:07.178Z,2.60
2022-08-28T20:40:33.778Z,2.30
2022-08-28T20:43:00.710Z,2.40
2022-08-28T20:45:27.356Z,2.67
2022-08-28T20:47:53.991Z,2.80
2022-08-28T20:50:20.571Z,2.63
2022-08-28T20:52:46.968Z,2.63
2022-08-28T20:55:14.802Z,2.47
2022-08-28T20:57:41.371Z,2.33
2022-08-28T21:00:10.602Z,2.50
2022-08-28T21:02:37.312Z,2.50
2022-08-28T21:05:04.951Z,2.47
2022-08-28T21:07:33.355Z,2.40
2022-08-28T21:10:06.941Z,2.40
2022-08-28T21:12:35.560Z,2.50
2022-08-28T21:15:02.325Z,2.40
2022-08-28T21:17:30.679Z,2.40
2022-08-28T21:20:00.164Z,2.10
2022-08-28T21:22:26.877Z,2.30
2022-08-28T21:24:53.487Z,2.42
2022-08-28T21:27:19.944Z,2.50
2022-08-28T21:29:47.784Z,2.17
2022-08-28T21:32:14.218Z,2.40
2022-08-28T21:34:40.604Z,2.42
2022-08-28T21:37:06.979Z,2.40
2022-08-28T21:39:33.802Z,2.10
2022-08-28T21:42:00.533Z,2.13
2022-08-28T21:44:26.920Z,2.30
2022-08-28T21:46:53.386Z,2.10
2022-08-28T21:49:20.344Z,2.20
2022-08-28T21:51:47.011Z,2.13
2022-08-28T21:54:13.570Z,1.90
2022-08-28T21:56:40.060Z,1.90
2022-08-28T21:59:06.485Z,1.80
2022-08-28T22:01:33.016Z,2.10
2022-08-28T22:03:59.476Z,2.25
2022-08-28T22:06:26.864Z,1.95
2022-08-28T22:08:54.585Z,2.60
2022-08-28T22:11:24.818Z,2.17
2022-08-28T22:13:52.483Z,2.00
2022-08-28T22:16:19.107Z,2.30
2022-08-28T22:18:45.585Z,2.30
2022-08-28T22:21:35.955Z,2.20
2022-08-28T22:24:02.559Z,2.40
2022-08-28T22:26:29.401Z,2.60
2022-08-28T22:28:56.096Z,2.20
2022-08-28T22:31:22.595Z,2.35
2022-08-28T22:33:49.135Z,2.47
2022-08-28T22:36:17.317Z,1.95
2022-08-28T22:38:47.104Z,2.35
2022-08-28T22:41:20.208Z,2.08
2022-08-28T22:43:48.271Z,2.22
2022-08-28T22:46:17.080Z,2.33
2022-08-28T22:48:43.590Z,2.53
2022-08-28T22:51:12.779Z,2.60
2022-08-28T22:53:41.491Z,2.38
2022-08-28T22:56:09.876Z,2.90
2022-08-28T22:58:37.140Z,2.50
2022-08-28T23:01:24.591Z,2.65
2022-08-28T23:03:51.138Z,2.80
2022-08-28T23:06:18.092Z,2.53
2022-08-28T23:08:44.534Z,2.60
2022-08-28T23:11:11.368Z,2.50
2022-08-28T23:13:38.362Z,2.60
2022-08-28T23:16:05.683Z,2.40
2022-08-28T23:18:46.410Z,2.30
2022-08-28T23:21:20.586Z,2.60
2022-08-28T23:23:47.125Z,2.70
2022-08-28T23:26:15.814Z,2.67
2022-08-28T23:28:43.010Z,2.42
2022-08-28T23:31:10.095Z,2.40
2022-08-28T23:33:36.590Z,2.58
2022-08-28T23:36:03.496Z,2.60
2022-08-28T23:38:30.183Z,2.40
2022-08-28T23:40:56.654Z,2.58
2022-08-28T23:43:23.290Z,2.40
2022-08-28T23:45:49.889Z,2.50
2022-08-28T23:48:16.718Z,2.40
2022-08-28T23:50:43.626Z,2.40
2022-08-28T23:53:10.991Z,2.42
2022-08-28T23:55:38.196Z,2.47
2022-08-28T23:58:05.355Z,2.63
